createdAt,value
2023-02-19T00:01:14.472Z,15.15
2023-02-19T00:06:09.464Z,12.77
2023-02-19T00:11:11.622Z,14.38
2023-02-19T00:16:18.966Z,13.45
2023-02-19T00:21:12.598Z,14.00
2023-02-19T00:26:18.499Z,13.07
2023-02-19T00:31:34.115Z,14.38
2023-02-19T00:36:28.436Z,14.18
2023-02-19T00:41:24.136Z,14.18
2023-02-19T00:46:29.276Z,13.82
2023-02-19T00:51:24.681Z,14.02
2023-02-19T00:56:19.369Z,14.75
2023-02-19T01:01:12.603Z,15.00
2023-02-19T01:06:07.921Z,13.30
2023-02-19T01:11:02.786Z,13.32
2023-02-19T01:16:03.278Z,11.60
2023-02-19T01:25:49.169Z,13.40
2023-02-19T01:30:41.764Z,12.07
2023-02-19T01:35:37.977Z,12.75
2023-02-19T01:40:31.033Z,14.35
2023-02-19T01:45:30.287Z,11.80
2023-02-19T01:50:24.275Z,10.32
2023-02-19T01:55:17.194Z,11.52
2023-02-19T02:00:15.927Z,9.77
2023-02-19T02:05:16.494Z,11.52
2023-02-19T02:10:22.315Z,10.32
2023-02-19T02:15:16.885Z,9.88
2023-02-19T02:20:15.326Z,8.73
2023-02-19T02:25:29.363Z,9.15
2023-02-19T02:30:54.437Z,8.77
2023-02-19T02:35:55.717Z,9.68
2023-02-19T02:40:49.290Z,7.85
2023-02-19T02:45:42.632Z,8.55
2023-02-19T02:50:51.331Z,9.07
2023-02-19T02:55:45.838Z,8.40
2023-02-19T03:01:00.038Z,8.27
2023-02-19T03:05:58.282Z,9.32
2023-02-19T03:11:30.604Z,6.43
2023-02-19T03:16:47.278Z,8.93
2023-02-19T03:21:43.002Z,7.97
2023-02-19T03:26:39.549Z,8.40
2023-02-19T03:31:34.940Z,7.35
2023-02-19T03:36:35.369Z,6.97
2023-02-19T03:41:37.478Z,7.65
2023-02-19T03:46:48.320Z,6.40
2023-02-19T03:51:51.701Z,11.05
2023-02-19T03:56:57.181Z,6.95
2023-02-19T04:01:56.215Z,6.20
2023-02-19T04:06:54.136Z,6.30
2023-02-19T04:11:49.512Z,7.47
2023-02-19T04:16:46.006Z,7.15
2023-02-19T04:21:41.959Z,7.25
2023-02-19T04:26:35.770Z,6.20
2023-02-19T04:31:32.236Z,5.72
2023-02-19T04:36:26.614Z,5.82
2023-02-19T04:41:20.283Z,5.38
2023-02-19T04:46:13.327Z,6.25
2023-02-19T04:51:07.666Z,5.47
2023-02-19T04:56:13.222Z,6.82
2023-02-19T05:01:07.496Z,6.32
2023-02-19T05:06:03.411Z,5.68
2023-02-19T05:10:59.924Z,4.75
2023-02-19T05:16:00.755Z,5.13
2023-02-19T05:20:54.443Z,5.40
2023-02-19T05:25:51.189Z,5.53
2023-02-19T05:30:51.896Z,5.32
2023-02-19T05:35:49.387Z,5.80
2023-02-19T05:40:42.145Z,7.15
2023-02-19T05:45:35.820Z,4.57
2023-02-19T05:50:29.177Z,4.68
2023-02-19T05:55:22.328Z,5.22
2023-02-19T06:00:18.305Z,4.60
2023-02-19T06:05:12.116Z,6.88
2023-02-19T06:10:05.578Z,7.95
2023-02-19T06:14:58.841Z,6.60
2023-02-19T06:19:52.393Z,4.70
2023-02-19T06:24:45.808Z,13.48
2023-02-19T06:29:38.853Z,6.20
2023-02-19T06:34:31.814Z,5.50
2023-02-19T06:39:24.829Z,5.53
2023-02-19T06:44:19.248Z,7.95
2023-02-19T06:49:11.737Z,9.07
2023-02-19T06:54:04.622Z,4.20
2023-02-19T06:59:03.049Z,8.10
2023-02-19T07:03:56.530Z,7.20
2023-02-19T07:08:50.717Z,7.90
2023-02-19T07:13:45.044Z,6.13
2023-02-19T07:18:38.734Z,6.53
2023-02-19T07:23:31.544Z,4.60
2023-02-19T07:28:25.150Z,6.63
2023-02-19T07:33:18.254Z,5.07
2023-02-19T07:38:11.223Z,6.00
2023-02-19T07:43:04.886Z,5.93
2023-02-19T07:47:58.357Z,5.85
2023-02-19T07:52:51.285Z,5.65
2023-02-19T07:57:45.602Z,7.38
2023-02-19T08:02:57.125Z,5.18
2023-02-19T08:07:49.274Z,4.70
2023-02-19T08:13:01.094Z,6.60
2023-02-19T08:17:54.299Z,8.35
2023-02-19T08:22:47.428Z,7.75
2023-02-19T08:27:41.049Z,5.20
2023-02-19T08:32:35.865Z,7.13
2023-02-19T08:37:28.891Z,10.35
2023-02-19T08:42:22.280Z,8.43
2023-02-19T08:47:15.119Z,6.68
2023-02-19T08:52:08.571Z,7.75
2023-02-19T08:57:01.415Z,10.05
2023-02-19T09:01:55.110Z,6.38
2023-02-19T09:06:48.292Z,15.10
2023-02-19T09:11:41.277Z,6.15
2023-02-19T09:16:35.733Z,7.95
2023-02-19T09:21:29.514Z,11.23
2023-02-19T09:26:23.597Z,6.40
2023-02-19T09:31:17.414Z,6.00
2023-02-19T09:36:10.854Z,8.82
2023-02-19T09:41:36.463Z,10.20
2023-02-19T09:46:35.017Z,7.28
2023-02-19T09:51:33.994Z,5.03
2023-02-19T09:56:27.103Z,10.07
2023-02-19T10:01:40.024Z,11.07
2023-02-19T10:06:33.637Z,57.00
2023-02-19T10:11:28.144Z,54.20
2023-02-19T10:16:27.344Z,64.22
2023-02-19T10:21:23.253Z,46.65
2023-02-19T10:26:16.629Z,46.55
2023-02-19T10:31:24.102Z,37.40
2023-02-19T10:36:23.851Z,31.27
2023-02-19T10:41:23.184Z,27.50
2023-02-19T10:46:22.297Z,26.02
2023-02-19T10:51:22.551Z,28.33
2023-02-19T10:56:26.757Z,20.52
2023-02-19T11:01:21.378Z,23.65
2023-02-19T11:06:17.630Z,22.95
2023-02-19T11:11:11.570Z,24.77
2023-02-19T11:16:05.876Z,19.60
2023-02-19T11:21:01.811Z,16.13
2023-02-19T11:25:56.906Z,21.35
2023-02-19T11:30:49.182Z,14.35
2023-02-19T11:35:42.546Z,15.00
2023-02-19T11:40:45.787Z,14.05
2023-02-19T11:46:00.660Z,14.23
2023-02-19T11:51:10.415Z,12.32
2023-02-19T11:56:09.647Z,12.40
2023-02-19T12:01:25.668Z,9.55
2023-02-19T12:06:29.614Z,11.05
2023-02-19T12:11:37.677Z,10.82
2023-02-19T12:16:46.321Z,8.38
2023-02-19T12:22:36.512Z,13.30
2023-02-19T12:27:42.382Z,8.02
2023-02-19T12:32:37.675Z,8.40
2023-02-19T12:37:52.868Z,8.07
2023-02-19T12:43:22.253Z,6.88
2023-02-19T12:48:21.367Z,7.57
2023-02-19T12:53:46.408Z,9.50
2023-02-19T12:59:04.991Z,7.25
2023-02-19T13:04:09.028Z,7.35
2023-02-19T13:09:20.174Z,10.98
2023-02-19T13:14:21.447Z,8.95
2023-02-19T13:19:15.352Z,6.60
2023-02-19T13:24:12.560Z,7.75
2023-02-19T13:29:25.306Z,6.43
2023-02-19T13:35:00.583Z,7.40
2023-02-19T13:39:56.807Z,4.75
2023-02-19T13:44:54.119Z,5.70
2023-02-19T13:49:50.183Z,5.75
2023-02-19T13:54:44.017Z,8.50
2023-02-19T13:59:39.211Z,5.65
2023-02-19T14:04:53.233Z,9.45
2023-02-19T14:09:47.544Z,6.80
2023-02-19T14:14:53.811Z,7.05
2023-02-19T14:19:50.574Z,3.50
2023-02-19T14:24:44.729Z,5.88
2023-02-19T14:29:38.812Z,8.93
2023-02-19T14:34:32.429Z,7.47
2023-02-19T14:39:33.567Z,5.03
2023-02-19T14:44:30.115Z,10.15
2023-02-19T14:49:28.950Z,6.70
2023-02-19T14:54:48.404Z,6.43
2023-02-19T14:59:51.929Z,11.55
2023-02-19T15:04:45.982Z,8.98
2023-02-19T15:09:43.865Z,6.82
2023-02-19T15:14:36.291Z,21.33
2023-02-19T15:19:33.570Z,5.70
2023-02-19T15:24:26.796Z,10.25
2023-02-19T15:29:24.124Z,6.93
2023-02-19T15:34:20.192Z,5.38
2023-02-19T15:39:20.759Z,4.40
2023-02-19T15:44:33.929Z,6.17
2023-02-19T15:49:38.277Z,3.72
2023-02-19T15:54:56.568Z,6.82
2023-02-19T15:59:58.480Z,7.28
2023-02-19T16:09:43.472Z,4.78
2023-02-19T16:14:37.272Z,6.22
2023-02-19T16:19:32.589Z,3.55
2023-02-19T16:24:50.675Z,3.17
2023-02-19T16:29:51.883Z,3.78
2023-02-19T16:34:48.162Z,3.85
2023-02-19T16:39:42.045Z,3.75
2023-02-19T16:44:39.221Z,3.70
2023-02-19T16:49:50.359Z,3.13
2023-02-19T16:54:43.333Z,3.22
2023-02-19T16:59:35.718Z,2.58
2023-02-19T17:04:29.001Z,2.20
2023-02-19T17:09:22.805Z,6.50
2023-02-19T17:14:15.735Z,7.32
2023-02-19T17:19:35.665Z,7.00
2023-02-19T17:24:28.590Z,4.63
2023-02-19T17:29:21.450Z,7.97
2023-02-19T17:34:14.688Z,7.28
2023-02-19T17:39:09.852Z,6.40
2023-02-19T17:44:03.477Z,9.63
2023-02-19T17:48:56.843Z,4.90
2023-02-19T17:53:49.791Z,10.50
2023-02-19T17:58:42.853Z,8.27
2023-02-19T18:03:35.992Z,6.70
2023-02-19T18:08:30.199Z,34.45
2023-02-19T18:13:24.864Z,13.45
2023-02-19T18:18:18.141Z,10.93
2023-02-19T18:23:11.662Z,13.60
2023-02-19T18:28:05.590Z,11.88
2023-02-19T18:32:58.269Z,16.67
2023-02-19T18:37:54.384Z,10.90
2023-02-19T18:42:46.208Z,15.90
2023-02-19T18:47:39.781Z,10.65
2023-02-19T18:52:33.015Z,12.98
2023-02-19T18:57:26.318Z,20.65
2023-02-19T19:02:20.655Z,15.68
2023-02-19T19:07:15.465Z,11.20
2023-02-19T19:12:08.853Z,11.85
2023-02-19T19:17:02.742Z,10.27
2023-02-19T19:21:56.178Z,10.23
2023-02-19T19:26:50.993Z,12.73
2023-02-19T19:31:44.807Z,16.13
2023-02-19T19:36:39.009Z,18.05
2023-02-19T19:41:32.742Z,12.70
2023-02-19T19:46:26.068Z,10.48
2023-02-19T19:51:19.964Z,14.95
2023-02-19T19:56:13.178Z,12.50
2023-02-19T20:01:07.348Z,13.45
2023-02-19T20:06:00.251Z,10.77
2023-02-19T20:10:52.531Z,12.82
2023-02-19T20:15:49.291Z,23.50
2023-02-19T20:20:41.858Z,10.38
2023-02-19T20:25:34.980Z,14.93
2023-02-19T20:30:28.563Z,8.35
2023-02-19T20:35:22.258Z,11.32
2023-02-19T20:40:18.311Z,11.52
2023-02-19T20:45:11.641Z,8.55
2023-02-19T20:50:04.786Z,8.23
2023-02-19T20:54:58.219Z,12.52
2023-02-19T20:59:51.646Z,11.57
2023-02-19T21:04:44.162Z,14.02
2023-02-19T21:09:37.132Z,12.45
2023-02-19T21:14:29.558Z,8.60
2023-02-19T21:19:22.416Z,11.63
2023-02-19T21:24:16.935Z,8.30
2023-02-19T21:29:14.676Z,10.02
2023-02-19T21:34:27.917Z,9.40
2023-02-19T21:39:22.693Z,9.25
2023-02-19T21:44:15.458Z,9.02
2023-02-19T21:49:07.690Z,12.18
2023-02-19T21:54:00.257Z,9.00
2023-02-19T21:58:53.391Z,8.45
2023-02-19T22:03:46.859Z,11.23
2023-02-19T22:08:39.847Z,12.27
2023-02-19T22:13:32.990Z,7.30
2023-02-19T22:18:26.238Z,10.30
2023-02-19T22:23:19.553Z,7.72
2023-02-19T22:28:11.846Z,9.65
2023-02-19T22:33:04.246Z,8.60
2023-02-19T22:37:57.848Z,8.98
2023-02-19T22:42:50.998Z,7.15
2023-02-19T22:47:44.917Z,7.88
2023-02-19T22:52:41.671Z,7.65
2023-02-19T22:57:35.332Z,8.55
2023-02-19T23:02:28.494Z,10.20
2023-02-19T23:07:21.200Z,9.30
2023-02-19T23:12:14.589Z,9.80
2023-02-19T23:17:08.240Z,9.55
2023-02-19T23:22:01.685Z,7.78
2023-02-19T23:26:55.221Z,8.82
2023-02-19T23:31:48.143Z,8.70
2023-02-19T23:36:45.189Z,8.10
2023-02-19T23:41:38.973Z,7.45
2023-02-19T23:46:34.417Z,8.18
2023-02-19T23:51:28.001Z,7.25
2023-02-19T23:56:29.060Z,10.10
